»·PEaware :: DCM180 KLAX-KLAS

DCM180 :: KLAX-KLAS

FLIGHT INFORMATION

Flight Status: Arrived
Operator:
DotCom
More flights by this operator :: More flights under this callsign
Pilot: Etienne B. (28927)
Aircraft: AIRBUS A320
(A320)
More flights by this aircraft type
Origin: KLAX Los Angeles Intl
United States
Destination: KLAS McCarran Intl
United States
More flights between these airports :: More routes between these airports
Route: OSHNN8 MISEN KEPEC6
File this flight plan on PilotEdge
Remarks: RMK / SIMBRIEF
Altitude:
(Current/Filed)
27,000ft
Speed:
(Current/Filed)
460kts
Departed: 26-Apr-20 05:00 PM
Arrived: 26-Apr-20 05:53 PM
Distance/Time
Traveled:
205nm/0:53
Distance/Time
To Go:
Arrived

Flight Plot

Page will automatically refresh every two minutes.

Flight plan parsing failed; only flown route is shown


Map Options




Map Legend


Flown Route
Filed Route
Departure Airport
Arrival Airport
Navaid (VOR, NDB)
Fix

Horizontal Profiles

Position Reports

Time Latitude Longitude Heading Altitude Ground
Speed
26-Apr-20 16:38 33.941657 -118.403949 263 127ft 0kts
26-Apr-20 16:39 33.941657 -118.403949 263 127ft 0kts
26-Apr-20 16:40 33.941657 -118.403949 263 127ft 0kts
26-Apr-20 16:41 33.941657 -118.403949 263 127ft 0kts
26-Apr-20 16:42 33.941657 -118.403949 263 127ft 0kts
26-Apr-20 16:43 33.941657 -118.403949 263 127ft 0kts
26-Apr-20 16:44 33.941657 -118.403949 263 127ft 0kts
26-Apr-20 16:45 33.941657 -118.403949 263 127ft 0kts
26-Apr-20 16:46 33.941657 -118.403948 263 127ft 0kts
26-Apr-20 16:47 33.941657 -118.403948 263 127ft 0kts
26-Apr-20 16:48 33.941657 -118.403948 263 127ft 0kts
26-Apr-20 16:49 33.941828 -118.403407 203 126ft 2kts
26-Apr-20 16:50 33.942024 -118.403388 172 126ft 0kts
26-Apr-20 16:51 33.941924 -118.403365 169 126ft 2kts
26-Apr-20 16:52 33.940153 -118.403053 173 127ft 0kts
26-Apr-20 16:53 33.939977 -118.403029 173 127ft 4kts
26-Apr-20 16:54 33.938618 -118.401516 83 124ft 12kts
26-Apr-20 16:55 33.939154 -118.396463 84 116ft 20kts
26-Apr-20 16:56 33.939957 -118.388734 83 108ft 26kts
26-Apr-20 16:57 33.940780 -118.380683 85 104ft 7kts
26-Apr-20 16:58 33.939703 -118.381489 262 104ft 40kts
26-Apr-20 16:59 33.933984 -118.435737 263 1692ft 224kts
26-Apr-20 17:00 33.901608 -118.501924 225 5324ft 251kts
26-Apr-20 17:01 33.846507 -118.557386 191 8669ft 276kts
26-Apr-20 17:02 33.768071 -118.534668 166 11218ft 323kts
26-Apr-20 17:03 33.688006 -118.481466 113 13643ft 361kts
26-Apr-20 17:04 33.651114 -118.363431 110 15201ft 405kts
26-Apr-20 17:05 33.647677 -118.220968 76 16013ft 449kts
26-Apr-20 17:06 33.723751 -118.108091 34 17415ft 454kts
26-Apr-20 17:07 33.823759 -118.019010 34 18752ft 464kts
26-Apr-20 17:08 33.928138 -117.924940 34 19956ft 476kts
26-Apr-20 17:09 34.034081 -117.827950 34 21093ft 486kts
26-Apr-20 17:10 34.132141 -117.714230 48 22126ft 500kts
26-Apr-20 17:11 34.220516 -117.582818 48 23112ft 508kts
26-Apr-20 17:12 34.310414 -117.448834 48 23984ft 516kts
26-Apr-20 17:13 34.400877 -117.313487 48 24811ft 521kts
26-Apr-20 17:14 34.491690 -117.177097 48 25844ft 520kts
26-Apr-20 17:15 34.583093 -117.041214 47 26874ft 520kts
26-Apr-20 17:16 34.675221 -116.907182 48 26952ft 518kts
26-Apr-20 17:17 34.767006 -116.772808 48 26953ft 518kts
26-Apr-20 17:18 34.860733 -116.639657 40 26954ft 517kts
26-Apr-20 17:19 34.972318 -116.530299 35 26460ft 518kts
26-Apr-20 17:20 35.085726 -116.419964 36 25506ft 524kts
26-Apr-20 17:21 35.188898 -116.295520 43 24069ft 511kts
26-Apr-20 17:22 35.286359 -116.173187 43 21320ft 498kts
26-Apr-20 17:23 35.381555 -116.053230 44 18520ft 484kts
26-Apr-20 17:24 35.473206 -115.937328 44 15929ft 463kts
26-Apr-20 17:25 35.559937 -115.827281 44 14108ft 425kts
26-Apr-20 17:26 35.636937 -115.729311 44 13323ft 373kts
26-Apr-20 17:27 35.704173 -115.643477 44 13058ft 331kts
26-Apr-20 17:29 35.774585 -115.574656 2 13061ft 323kts
26-Apr-20 17:30 35.863501 -115.569486 358 13055ft 320kts
26-Apr-20 17:31 35.952398 -115.562007 17 13029ft 326kts
26-Apr-20 17:32 36.000798 -115.470725 68 11767ft 329kts
26-Apr-20 17:33 36.030194 -115.368727 90 10887ft 300kts
26-Apr-20 17:34 36.023398 -115.268402 96 9771ft 288kts
26-Apr-20 17:35 36.016451 -115.169806 96 8720ft 283kts
26-Apr-20 17:36 36.009972 -115.075708 94 8044ft 260kts
26-Apr-20 17:37 36.004698 -114.986777 93 8027ft 259kts
26-Apr-20 17:38 35.999399 -114.898302 92 8024ft 258kts
26-Apr-20 17:39 35.993964 -114.809716 93 8023ft 258kts
26-Apr-20 17:40 35.988093 -114.721004 93 8023ft 259kts
26-Apr-20 17:41 35.982367 -114.632982 87 8020ft 255kts
26-Apr-20 17:42 36.033244 -114.597216 359 8023ft 235kts
26-Apr-20 17:43 36.068405 -114.648759 275 8025ft 229kts
26-Apr-20 17:44 36.073793 -114.727569 276 8024ft 229kts
26-Apr-20 17:45 36.079494 -114.806272 276 8019ft 230kts
26-Apr-20 17:45 36.090548 -114.869943 298 7551ft 232kts
26-Apr-20 17:47 36.129364 -114.953220 300 6038ft 235kts
26-Apr-20 17:48 36.158716 -115.016596 298 4997ft 184kts
26-Apr-20 17:48 36.174897 -115.061596 273 3965ft 157kts
26-Apr-20 17:50 36.154565 -115.114837 231 2935ft 141kts
26-Apr-20 17:50 36.128676 -115.139791 205 2766ft 144kts
26-Apr-20 17:51 36.092716 -115.160310 206 2115ft 135kts
26-Apr-20 17:52 36.084086 -115.164855 179 2150ft 0kts
26-Apr-20 17:53 36.083955 -115.164854 179 2150ft 1kts
26-Apr-20 17:54 36.082210 -115.164475 134 2153ft 9kts
26-Apr-20 17:55 36.081618 -115.157163 91 2131ft 30kts
26-Apr-20 17:56 36.082315 -115.149480 66 2102ft 16kts
26-Apr-20 17:57 36.082662 -115.148723 55 2099ft 0kts

Navigation Log

Ident Type
Flight plan parsing failed, navigation log unavailable